Архив погоды в Гусь-Хрустальный

Метеограмма Гусь-Хрустальный
Вторник, 14 Августа
Время местн. Темп Ветер Видим Явления Облачность нижн/средн/верх Атм. давл. Влжн Точка росы ВНГО R Сост. почвы Tg s
Напр Скр Прв ур.ст ур.м изм
21:00 +14.6° штиль 0 - 20 км - переменная облачность 750 762 +0.5 75% +10.2° более 2.5 км - - - -
18:00 +23.7° З 2 - 20 км - переменная облачность 750 761 +0.1 30% +5.2° 1 км - - - -
15:00 +24.1° З 3 - 20 км - переменная облачность 750 761 +0.1 31% +5.9° 1 км - - - -
12:00 +21.9° З,С-З 2 - 20 км - переменная облачность 750 762 +0.4 41% +8.1° 600 м - - - -
09:00 +18.1° З 2 - 20 км - незначительная облачность 749 761 +1 62% +10.6° 1 км - - - -
06:00 +12° штиль 0 - 20 км - переменная облачность 748 761 +1 84% +9.4° более 2.5 км - Влажная (без луж) - -
03:00 +13.7° З 1 - 20 км - преимущественно облачно 747 759 +0.5 73% +9° более 2.5 км - - - -
00:00 +15.2° З,Ю-З 1 - 20 км - облачно с прояснениями 747 759 +0.3 61% +7.8° более 2.5 км - - - -
Понедельник, 13 Августа
Время местн. Темп Ветер Видим Явления Облачность нижн/средн/верх Атм. давл. Влжн Точка росы ВНГО R Сост. почвы Tg s
Напр Скр Прв ур.ст ур.м изм
21:00 +17.2° З 2 - 20 км - облачно с прояснениями 747 759 +0.3 51% +7.1° более 2.5 км - - - -
18:00 +20.7° Ю-З 2 - 20 км - преимущественно облачно 746 758 -0.2 39% +6.3° 600 м - - - -
15:00 +22.3° З 4 - 20 км - преимущественно облачно 746 758 -0.4 36% +6.6° 600 м - - - -
12:00 +22.5° З,Ю-З 4 - 20 км - облачно с прояснениями 747 759 -0.4 32% +5.1° 600 м - - - -
09:00 +20.1° З 3 - 20 км - переменная облачность 747 759 +0.1 47% +8.3° более 2.5 км - - - -
06:00 +15° Ю-З 2 - 20 км - переменная облачность 747 759 +0.2 79% +11.4° более 2.5 км - Влажная (без луж) - -
03:00 +16.6° З 1 - 20 км - переменная облачность 747 759 +0.2 73% +11.7° 600 м - - - -
00:00 +20° З,Ю-З 2 - 20 км - переменная облачность 747 759 -0.2 56% +11° более 2.5 км - - - -
Воскресенье, 12 Августа
Время местн. Темп Ветер Видим Явления Облачность нижн/средн/верх Атм. давл. Влжн Точка росы ВНГО R Сост. почвы Tg s
Напр Скр Прв ур.ст ур.м изм
21:00 +20° Ю 1 - 20 км - облачно с прояснениями 747 759 -0.6 57% +11.1° более 2.5 км - - - -
18:00 +26.8° Ю-З 3 - 20 км - облачно с прояснениями 747 759 -1.3 32% +8.8° более 2.5 км - - - -
15:00 +28.7° Ю-З 3 - 20 км - переменная облачность 749 760 -1.4 27% +7.7° более 2.5 км - - - -
12:00 +26.8° З,Ю-З 3 - 20 км - переменная облачность 750 762 -0.8 32% +8.7° более 2.5 км - - - -
09:00 +23° Ю,Ю-З 1 - 20 км - ясно 751 763 -0.8 50% +11.9° более 2.5 км - - - -
06:00 +10.8° штиль 0 - 20 км - ясно 752 764 -0.5 92% +9.6° более 2.5 км - Влажная (без луж) - -
03:00 +10.8° штиль 0 - 20 км - ясно 752 765 -0.4 92% +9.6° более 2.5 км - - - -
00:00 +13.3° Ю,Ю-В 1 - 20 км - ясно 753 765 -0.4 88% +11.4° более 2.5 км - - - -
Суббота, 11 Августа
Время местн. Темп Ветер Видим Явления Облачность нижн/средн/верх Атм. давл. Влжн Точка росы ВНГО R Сост. почвы Tg s
Напр Скр Прв ур.ст ур.м изм
21:00 +18.2° штиль 0 - 20 км - ясно 753 765 -0.2 67% +12° более 2.5 км - - - -
18:00 +27.2° З 2 - 20 км - ясно 753 765 -1.4 30% +8.3° более 2.5 км - - - -